Latest Weather Observations for Kadina

IDS60801

Issued at 7:31 am CDT Wednesday 22 November 2017 (issued every 30 minutes, with the page automatically refreshed every 10 minutes)

About weather observations | Map of weather stations | Latest weather observations for SA | Other Formats
Station Details ID: 022050 Name: KADINA AWS Lat: -33.97 Lon: 137.66 Height: 41.14 m
Data from the previous 72 hours. | See also: Recent months at Kadina
Date/Time
CDT
Temp
°C
App
Temp
°C
Dew
Point
°C
Rel
Hum
%
Delta-T
°C
Wind Press
QNH
hPa
Press
MSL
hPa
Rain since
9am
mm
Dir  Spd
km/h
Gust
km/h
Spd
kts
Gust
kts
22/07:30am 27.0 22.0 3.5 22 11.7 NNE 19 28 10 15 1010.1 1010.0 0.0
22/07:00am 23.8 19.0 2.6 25 10.2 NE 17 20 9 11 1009.8 1009.7 0.0
22/06:30am 21.4 16.5 2.2 28 9.0 ENE 17 19 9 10 1009.5 1009.4 0.0
22/06:00am 21.4 16.5 2.2 28 9.0 NE 17 20 9 11 1009.2 1009.1 0.0
22/05:30am 22.3 16.8 1.9 26 9.6 NE 20 24 11 13 1008.9 1008.8 0.0
22/05:00am 21.2 15.8 1.5 27 9.1 ENE 19 20 10 11 1008.7 1008.6 0.0
22/04:30am 21.3 16.2 1.0 26 9.3 ENE 17 20 9 11 1008.6 1008.5 0.0
22/04:00am 22.5 17.1 1.5 25 9.8 NE 19 22 10 12 1008.5 1008.4 0.0
22/03:30am 23.4 17.9 1.7 24 10.2 NE 20 22 11 12 1008.5 1008.4 0.0
22/03:00am 25.0 19.1 1.8 22 11.1 NE 22 26 12 14 1008.5 1008.4 0.0
22/02:30am 25.3 19.1 2.1 22 11.2 NE 24 30 13 16 1008.5 1008.4 0.0
22/02:00am 24.9 18.6 1.7 22 11.0 NE 24 32 13 17 1008.8 1008.7 0.0
22/01:30am 24.1 18.6 1.7 23 10.6 NE 20 24 11 13 1009.1 1009.0 0.0
22/01:00am 23.9 18.3 1.5 23 10.5 NE 20 24 11 13 1009.2 1009.1 0.0
22/12:30am 23.9 18.5 1.5 23 10.5 ENE 19 24 10 13 1009.6 1009.5 0.0
22/12:00am 24.4 18.8 1.3 22 10.9 NE 20 24 11 13 1009.8 1009.7 0.0
 
Date/Time
CDT
Temp
°C
App
Temp
°C
Dew
Point
°C
Rel
Hum
%
Delta-T
°C
Wind Press
QNH
hPa
Press
MSL
hPa
Rain since
9am
mm
Dir  Spd
km/h
Gust
km/h
Spd
kts
Gust
kts
21/11:30pm 25.4 19.5 1.5 21 11.4 NE 22 26 12 14 1009.9 1009.8 0.0
21/11:00pm 23.0 18.6 5.0 31 9.0 ENE 17 19 9 10 1010.0 1009.9 0.0
21/10:30pm 24.3 20.0 7.0 33 9.0 ENE 19 22 10 12 1010.1 1010.0 0.0
21/10:00pm 21.8 17.8 4.8 33 8.4 ESE 15 17 8 9 1010.4 1010.3 0.0
21/09:30pm 22.7 18.0 3.3 28 9.4 ESE 17 19 9 10 1010.4 1010.3 0.0
21/09:00pm 26.0 22.5 3.3 23 11.2 NE 11 13 6 7 1010.1 1010.0 0.0
21/08:30pm 29.1 26.1 3.9 20 12.8 NNE 9 11 5 6 1010.1 1010.0 0.0
21/08:00pm 30.9 28.4 3.8 18 13.9 N 6 7 3 4 1009.9 1009.8 0.0
21/07:30pm 32.4 29.0 4.2 17 14.7 NNW 11 15 6 8 1009.8 1009.7 0.0
21/07:00pm 33.4 28.3 4.2 16 15.3 NNW 20 26 11 14 1009.5 1009.4 0.0
21/06:30pm 33.9 28.1 4.6 16 15.5 NNW 24 30 13 16 1009.4 1009.3 0.0
21/06:00pm 34.1 28.7 4.7 16 15.6 NW 22 30 12 16 1009.5 1009.4 0.0
21/05:30pm 34.0 27.9 4.6 16 15.6 NW 26 33 14 18 1009.7 1009.6 0.0
21/05:00pm 34.3 28.0 5.8 17 15.4 NW 28 33 15 18 1009.9 1009.8 0.0
21/04:30pm 34.5 28.1 5.0 16 15.8 NW 28 35 15 19 1010.1 1010.0 0.0
21/04:00pm 34.6 27.4 5.1 16 15.8 NW 32 39 17 21 1010.2 1010.1 0.0
21/03:30pm 34.6 27.4 6.0 17 15.6 NW 33 39 18 21 1010.6 1010.5 0.0
21/03:00pm 34.1 26.8 5.6 17 15.4 NW 33 43 18 23 1010.8 1010.7 0.0
21/02:30pm 34.7 27.3 6.9 18 15.3 NW 35 44 19 24 1011.1 1011.0 0.0
21/02:00pm 34.7 27.7 6.9 18 15.3 NNW 33 44 18 24 1011.6 1011.5 0.0
21/01:43pm 35.1 28.2 6.4 17 15.7 NNW 32 50 17 27 1011.7 1011.6 0.0
21/01:30pm 34.1 26.6 6.4 18 15.1 NNW 35 48 19 26 1011.9 1011.8 0.0
21/01:00pm 34.9 27.6 7.1 18 15.4 N 35 46 19 25 1012.4 1012.3 0.0
21/12:30pm 34.1 26.6 6.4 18 15.1 NNW 35 48 19 26 1012.8 1012.7 0.0
21/12:00pm 33.1 25.8 7.1 20 14.3 N 35 46 19 25 1013.2 1013.1 0.0
21/11:30am 32.6 25.6 6.7 20 14.1 N 33 46 18 25 1013.5 1013.4 0.0
21/11:00am 32.3 25.4 7.2 21 13.7 N 33 44 18 24 1013.8 1013.7 0.0
21/10:30am 32.3 25.5 7.9 22 13.5 N 33 44 18 24 1013.8 1013.7 0.0
21/10:00am 31.1 23.9 7.5 23 12.9 N 35 46 19 25 1013.9 1013.8 0.0
21/09:30am 31.3 24.3 8.3 24 12.7 N 35 46 19 25 1013.9 1013.8 0.0
21/09:00am 30.5 23.9 7.7 24 12.5 NNE 32 41 17 22 1013.8 1013.7 0.0
21/08:30am 29.0 22.4 7.6 26 11.6 NNE 32 43 17 23 1013.8 1013.7 0.0
21/08:00am 28.1 21.3 7.9 28 10.9 NNE 33 44 18 24 1013.6 1013.5 0.0
21/07:30am 26.9 21.6 8.4 31 10.0 NE 26 33 14 18 1013.4 1013.3 0.0
21/07:00am 24.7 20.7 8.2 35 8.8 NE 19 24 10 13 1013.3 1013.2 0.0
21/06:30am 22.7 18.8 8.8 41 7.4 NE 19 22 10 12 1013.0 1012.9 0.0
21/06:00am 19.6 16.8 8.6 49 5.7 ENE 13 17 7 9 1012.8 1012.7 0.0
21/05:30am 19.5 16.0 8.8 50 5.6 ENE 17 17 9 9 1012.4 1012.3 0.0
21/05:00am 19.4 16.2 8.4 49 5.7 ENE 15 17 8 9 1012.2 1012.1 0.0
21/04:30am 20.0 16.9 8.7 48 5.9 ENE 15 17 8 9 1012.0 1011.9 0.0
21/04:00am 20.7 17.6 8.7 46 6.3 ENE 15 15 8 8 1012.1 1012.0 0.0
21/03:30am 21.6 18.5 8.8 44 6.8 ENE 15 17 8 9 1012.0 1011.9 0.0
21/03:00am 22.5 19.3 8.6 41 7.4 ENE 15 19 8 10 1012.0 1011.9 0.0
21/02:30am 23.4 19.8 8.3 38 8.0 ENE 17 19 9 10 1012.1 1012.0 0.0
21/02:00am 23.6 20.0 8.5 38 8.1 ENE 17 20 9 11 1012.2 1012.1 0.0
21/01:30am 23.7 20.2 8.6 38 8.1 ENE 17 19 9 10 1012.2 1012.1 0.0
21/01:00am 24.2 20.6 8.2 36 8.5 ENE 17 20 9 11 1012.4 1012.3 0.0
21/12:30am 25.2 21.1 7.8 33 9.3 ENE 19 20 10 11 1012.5 1012.4 0.0
21/12:00am 25.6 21.9 8.1 33 9.4 ENE 17 20 9 11 1012.5 1012.4 0.0
 
Date/Time
CDT
Temp
°C
App
Temp
°C
Dew
Point
°C
Rel
Hum
%
Delta-T
°C
Wind Press
QNH
hPa
Press
MSL
hPa
Rain since
9am
mm
Dir  Spd
km/h
Gust
km/h
Spd
kts
Gust
kts
20/11:30pm 25.3 21.2 7.9 33 9.3 ENE 19 20 10 11 1012.5 1012.4 0.0
20/11:00pm 25.4 21.7 8.0 33 9.3 ENE 17 22 9 12 1012.4 1012.3 0.0
20/10:30pm 27.0 23.0 8.4 31 10.1 ENE 19 24 10 13 1012.3 1012.2 0.0
20/10:00pm 25.7 22.3 9.1 35 9.1 E 17 20 9 11 1012.3 1012.2 0.0
20/09:30pm 26.4 23.1 9.7 35 9.2 ESE 17 19 9 10 1012.0 1011.9 0.0
20/09:00pm 27.7 24.6 9.0 31 10.3 ESE 15 19 8 10 1011.7 1011.6 0.0
20/08:30pm 27.8 25.3 8.1 29 10.7 E 11 13 6 7 1011.4 1011.3 0.0
20/08:00pm 31.3 29.0 8.9 25 12.5 E 11 13 6 7 1011.2 1011.1 0.0
20/07:30pm 33.0 30.6 8.5 22 13.7 ENE 11 13 6 7 1011.0 1010.9 0.0
20/07:00pm 33.3 30.2 8.7 22 13.9 NE 15 20 8 11 1010.9 1010.8 0.0
20/06:30pm 33.8 30.4 9.1 22 14.0 NE 17 22 9 12 1010.7 1010.6 0.0
20/06:00pm 33.5 30.4 8.9 22 13.9 NNE 15 22 8 12 1010.8 1010.7 0.0
20/05:30pm 34.8 30.9 9.3 21 14.6 N 20 33 11 18 1010.8 1010.7 0.0
20/05:00pm 33.4 31.8 8.8 22 13.9 NE 7 17 4 9 1011.0 1010.9 0.0
20/04:30pm 32.8 29.2 8.3 22 13.7 E 17 26 9 14 1011.1 1011.0 0.0
20/04:00pm 34.4 31.3 8.9 21 14.5 E 15 32 8 17 1011.2 1011.1 0.0
20/03:30pm 34.8 31.4 9.3 21 14.6 N 17 28 9 15 1011.3 1011.2 0.0
20/03:00pm 34.4 30.4 8.9 21 14.5 N 20 28 11 15 1011.6 1011.5 0.0
20/02:30pm 33.4 29.7 10.1 24 13.4 NNW 20 26 11 14 1012.0 1011.9 0.0
20/02:00pm 32.3 27.9 10.4 26 12.6 N 24 33 13 18 1012.4 1012.3 0.0
20/01:30pm 31.5 27.2 10.8 28 12.0 NNW 24 32 13 17 1012.7 1012.6 0.0
20/01:00pm 32.3 26.9 10.9 27 12.4 N 30 39 16 21 1012.8 1012.7 0.0
20/12:30pm 31.7 26.7 11.0 28 12.0 N 28 35 15 19 1013.2 1013.1 0.0
20/12:00pm 33.1 28.8 12.1 27 12.5 N 26 35 14 19 1013.4 1013.3 0.0
20/11:33am 33.3 28.4 11.2 26 12.9 NNE 28 50 15 27 1013.6 1013.5 0.0
20/11:30am 32.8 27.2 10.2 25 13.0 NNE 30 43 16 23 1013.7 1013.6 0.0
20/11:00am 33.3 28.2 10.6 25 13.2 NNE 28 39 15 21 1013.9 1013.8 0.0
20/10:30am 32.5 26.8 11.1 27 12.5 NNE 32 41 17 22 1014.1 1014.0 0.0
20/10:00am 31.4 25.7 11.2 29 11.7 NNE 32 39 17 21 1014.3 1014.2 0.0
20/09:30am 30.9 25.2 11.3 30 11.4 NNE 32 44 17 24 1014.4 1014.3 0.0
20/09:00am 30.0 24.3 11.0 31 10.9 NNE 32 43 17 23 1014.4 1014.3 0.0
20/08:30am 28.9 23.3 11.5 34 10.0 NNE 32 41 17 22 1014.4 1014.3 0.0
20/08:00am 27.1 21.8 11.2 37 9.1 NE 30 41 16 22 1014.2 1014.1 0.0
20/07:30am 26.0 22.5 11.0 39 8.5 NE 20 28 11 15 1014.1 1014.0 0.0
20/07:00am 24.4 21.3 10.3 41 7.8 ENE 17 22 9 12 1013.9 1013.8 0.0
20/06:30am 22.8 19.6 9.9 44 7.0 ENE 17 20 9 11 1013.6 1013.5 0.0
20/06:00am 22.6 19.3 9.7 44 7.0 ENE 17 20 9 11 1013.3 1013.2 0.0
20/05:30am 23.1 19.4 9.5 42 7.4 ENE 19 20 10 11 1012.9 1012.8 0.0
20/05:00am 23.5 19.7 9.1 40 7.8 ENE 19 24 10 13 1012.6 1012.5 0.0
20/04:30am 22.3 18.9 9.1 43 7.1 E 17 20 9 11 1012.5 1012.4 0.0
20/04:00am 20.8 17.4 9.1 47 6.2 E 17 19 9 10 1012.4 1012.3 0.0
20/03:30am 21.3 18.6 8.9 45 6.6 E 13 17 7 9 1012.4 1012.3 0.0
20/03:00am 21.4 18.3 9.0 45 6.6 E 15 17 8 9 1012.3 1012.2 0.0
20/02:30am 21.9 18.9 9.1 44 6.8 E 15 19 8 10 1012.4 1012.3 0.0
20/02:00am 20.5 17.5 9.4 49 5.9 E 15 19 8 10 1012.3 1012.2 0.0
20/01:30am 19.4 16.4 9.3 52 5.3 ESE 15 17 8 9 1012.3 1012.2 0.0
20/01:00am 19.6 16.7 9.5 52 5.4 ESE 15 17 8 9 1012.4 1012.3 0.0
20/12:30am 19.9 17.0 9.5 51 5.5 ESE 15 17 8 9 1012.5 1012.4 0.0
20/12:00am 20.2 17.3 9.5 50 5.7 ESE 15 17 8 9 1012.4 1012.3 0.0
 
Date/Time
CDT
Temp
°C
App
Temp
°C
Dew
Point
°C
Rel
Hum
%
Delta-T
°C
Wind Press
QNH
hPa
Press
MSL
hPa
Rain since
9am
mm
Dir  Spd
km/h
Gust
km/h
Spd
kts
Gust
kts
19/11:30pm 20.1 17.7 9.9 52 5.5 ESE 13 15 7 8 1012.4 1012.3 0.0
19/11:00pm 19.9 18.2 9.8 52 5.4 E 9 11 5 6 1012.5 1012.4 0.0
19/10:30pm 20.5 20.1 9.7 50 5.8 N 2 7 1 4 1012.5 1012.4 0.0
19/10:00pm 21.2 20.7 10.7 51 5.8 ESE 4 9 2 5 1012.0 1011.9 0.0
19/09:30pm 21.1 19.0 9.7 48 6.1 SE 11 11 6 6 1011.6 1011.5 0.0
19/09:00pm 22.1 19.5 7.9 40 7.4 S 11 11 6 6 1011.3 1011.2 0.0
19/08:30pm 23.5 21.2 7.6 36 8.4 SSW 9 11 5 6 1011.3 1011.2 0.0
19/08:00pm 25.1 22.5 7.7 33 9.2 S 11 13 6 7 1011.3 1011.2 0.0
19/07:30pm 27.1 24.6 8.0 30 10.3 SSW 11 15 6 8 1011.5 1011.4 0.0
19/07:00pm 28.3 25.6 7.5 27 11.2 SW 11 13 6 7 1011.4 1011.3 0.0
19/06:30pm 28.7 25.6 7.3 26 11.5 SW 13 19 7 10 1011.3 1011.2 0.0
19/06:00pm 29.2 26.8 7.2 25 11.9 WSW 9 15 5 8 1011.3 1011.2 0.0
19/05:30pm 29.1 26.9 7.7 26 11.6 W 9 15 5 8 1011.4 1011.3 0.0
19/05:00pm 28.8 25.8 7.9 27 11.4 WSW 13 19 7 10 1011.4 1011.3 0.0
19/04:30pm 28.5 25.5 7.7 27 11.3 W 13 17 7 9 1011.7 1011.6 0.0
19/04:00pm 28.7 25.1 8.4 28 11.1 WNW 17 26 9 14 1011.9 1011.8 0.0
19/03:30pm 29.6 25.9 8.1 26 11.8 NW 17 24 9 13 1011.8 1011.7 0.0
19/03:00pm 29.0 25.1 7.0 25 11.8 NW 17 24 9 13 1012.1 1012.0 0.0
19/02:30pm 28.8 25.3 7.4 26 11.5 WNW 15 24 8 13 1012.5 1012.4 0.0
19/02:00pm 27.9 23.9 8.2 29 10.7 WNW 19 26 10 14 1013.1 1013.0 0.0
19/01:30pm 26.8 22.6 7.3 29 10.4 W 19 24 10 13 1013.4 1013.3 0.0
19/01:00pm 26.4 22.8 9.7 35 9.2 WNW 19 24 10 13 1013.6 1013.5 0.0
19/12:30pm 26.9 22.2 9.3 33 9.7 WNW 24 30 13 16 1014.0 1013.9 0.0
19/12:00pm 27.6 23.2 10.3 34 9.7 NW 24 30 13 16 1014.2 1014.1 0.0
19/11:30am 26.0 22.6 12.5 43 7.8 NW 22 33 12 18 1014.5 1014.4 0.0
19/11:00am 29.0 25.1 8.7 28 11.2 NE 19 28 10 15 1014.2 1014.1 0.0
19/10:30am 28.7 25.6 10.4 32 10.4 ENE 17 26 9 14 1014.0 1013.9 0.0
19/10:00am 26.3 23.7 12.0 41 8.2 ENE 17 26 9 14 1014.3 1014.2 0.0
19/09:30am 24.6 22.3 11.9 45 7.2 ENE 15 20 8 11 1014.4 1014.3 0.0
19/09:00am 24.1 21.6 12.4 48 6.7 E 17 24 9 13 1014.2 1014.1 0.0
19/08:30am 21.8 19.8 13.9 61 4.6 E 17 20 9 11 1014.5 1014.4 0.0
19/08:00am 20.0 17.9 13.7 67 3.6 ESE 17 22 9 12 1014.5 1014.4 0.0

Other Formats:

Comma delimited format used in spreadsheet applications
http://www.bom.gov.au/fwo/IDS60801/IDS60801.94685.axf

JavaScript Object Notation format (JSON) in row-major order
http://www.bom.gov.au/fwo/IDS60801/IDS60801.94685.json